Durham, NC (27712)

1:18 AM EDT on September 05, 2015 (GMT -0400)
Heritage Heights | | Change Station
CLOSE
Current Station
Personal Weather Station
Location: Durham, NC
Elevation: 430 ft
Nearby Weather Stations

Elev 430 ft 36.08 °N, 78.94 °W | Updated 11 minutes ago

Partly Cloudy
Partly Cloudy
70.9 °F
Feels Like 70.9 °F
N
0.0
Wind Variable Wind from WSW

Today
High -- | Low -- °F
--% Chance of Precip.
Yesterday
High -- | Low -- °F
Precip. -- in
6:50 AM 7:37 PM
Waning Gibbous, 52% visible
Pressure 30.08 in
Visibility 10.0 miles
Clouds Clear
Dew Point 68 °F
Humidity 91%
Rainfall 0.00 in
Snow Depth Not available.
UV 0 out of 12
Pollen 8.50 out of 12
Air Quality Not available.
Flu Activity Not available.
METAR KIGX 050456Z AUTO 03005KT 10SM CLR 23/19 A3010 RMK AO2 SLP184 T02280189 403330200 TSNO
Pressure 30.08 in
Visibility 10.0 miles
Clouds Clear
Dew Point 68 °F
Humidity 91%
Rainfall 0.00 in
Snow Depth Not available.
UV 0 out of 12
Pollen 8.50 out of 12
Air Quality Not available.
Flu Activity Not available.
METAR KIGX 050456Z AUTO 03005KT 10SM CLR 23/19 A3010 RMK AO2 SLP184 T02280189 403330200 TSNO

10-Day Weather Forecast

×

Almanac

Astronomy

Sep. 05, 2015 Rise Set
Actual Time
Civil Twilight
Nautical Twilight
Astronomical Twilight
Moon
Length of Visible Light
Length of Day
Tomorrow will be .
, % of the Moon is Illuminated

Today's Extremes

State Highs State Lows

Community

WunderPhotos

Upload Photos

1,852,426 photos uploaded!

WunderBlogs® & News

Nearby

Air Quality

  Air Quality AQ Index Pollutant
Not available.

Snow Depth

Station Depth Elevation

Earthquake Activity

City Distance Mag. Time & Date
Minimum magnitude displayed is 2.5.

Coastal Water Temperatures

Place Temperature

Stations

Nearby Weather Stations

Station Location Temp. Windchill Dew Point Humidity Wind Precip. Elev Updated Type